sensor_id;sensor_type;location;lat;lon;timestamp;P1;durP1;ratioP1;P2;durP2;ratioP2
84682;SDS011;74905;44.124;18.116;2024-02-23T00:00:31;11.38;;;5.63;;
84682;SDS011;74905;44.124;18.116;2024-02-23T00:02:57;8.73;;;5.55;;
84682;SDS011;74905;44.124;18.116;2024-02-23T00:05:23;7.00;;;5.35;;
84682;SDS011;74905;44.124;18.116;2024-02-23T00:07:49;7.70;;;5.47;;
84682;SDS011;74905;44.124;18.116;2024-02-23T00:10:15;9.95;;;5.50;;
84682;SDS011;74905;44.124;18.116;2024-02-23T00:12:41;9.40;;;6.03;;
84682;SDS011;74905;44.124;18.116;2024-02-23T00:15:09;8.95;;;5.85;;
84682;SDS011;74905;44.124;18.116;2024-02-23T00:17:34;7.25;;;4.75;;
84682;SDS011;74905;44.124;18.116;2024-02-23T00:20:00;7.95;;;5.20;;
84682;SDS011;74905;44.124;18.116;2024-02-23T00:22:26;19.83;;;8.90;;
84682;SDS011;74905;44.124;18.116;2024-02-23T00:24:51;17.13;;;6.85;;
84682;SDS011;74905;44.124;18.116;2024-02-23T00:27:17;5.45;;;4.13;;
84682;SDS011;74905;44.124;18.116;2024-02-23T00:29:42;5.80;;;4.53;;
84682;SDS011;74905;44.124;18.116;2024-02-23T00:32:08;8.77;;;4.72;;
84682;SDS011;74905;44.124;18.116;2024-02-23T00:34:37;6.13;;;3.63;;
84682;SDS011;74905;44.124;18.116;2024-02-23T00:37:02;5.45;;;3.60;;
84682;SDS011;74905;44.124;18.116;2024-02-23T00:39:28;6.90;;;3.83;;
84682;SDS011;74905;44.124;18.116;2024-02-23T00:41:54;6.22;;;3.80;;
84682;SDS011;74905;44.124;18.116;2024-02-23T00:44:19;5.88;;;3.70;;
84682;SDS011;74905;44.124;18.116;2024-02-23T00:46:45;8.50;;;4.07;;
84682;SDS011;74905;44.124;18.116;2024-02-23T00:49:11;5.65;;;3.92;;
84682;SDS011;74905;44.124;18.116;2024-02-23T00:51:36;7.18;;;4.00;;
84682;SDS011;74905;44.124;18.116;2024-02-23T00:54:02;5.13;;;3.53;;
84682;SDS011;74905;44.124;18.116;2024-02-23T00:56:27;6.72;;;4.10;;
84682;SDS011;74905;44.124;18.116;2024-02-23T00:58:53;4.70;;;3.53;;
84682;SDS011;74905;44.124;18.116;2024-02-23T01:01:18;6.03;;;3.92;;
84682;SDS011;74905;44.124;18.116;2024-02-23T01:03:44;7.85;;;4.78;;
84682;SDS011;74905;44.124;18.116;2024-02-23T01:06:09;17.17;;;7.38;;
84682;SDS011;74905;44.124;18.116;2024-02-23T01:08:35;5.97;;;4.30;;
84682;SDS011;74905;44.124;18.116;2024-02-23T01:11:01;6.43;;;4.35;;
84682;SDS011;74905;44.124;18.116;2024-02-23T01:13:26;7.60;;;4.32;;
84682;SDS011;74905;44.124;18.116;2024-02-23T01:15:52;6.22;;;4.15;;
84682;SDS011;74905;44.124;18.116;2024-02-23T01:18:19;7.90;;;4.25;;
84682;SDS011;74905;44.124;18.116;2024-02-23T01:20:45;5.97;;;4.03;;
84682;SDS011;74905;44.124;18.116;2024-02-23T01:23:10;7.32;;;4.93;;
84682;SDS011;74905;44.124;18.116;2024-02-23T01:25:36;6.13;;;4.00;;
84682;SDS011;74905;44.124;18.116;2024-02-23T01:28:02;5.38;;;4.00;;
84682;SDS011;74905;44.124;18.116;2024-02-23T01:30:28;5.72;;;4.53;;
84682;SDS011;74905;44.124;18.116;2024-02-23T01:32:54;5.93;;;3.97;;
84682;SDS011;74905;44.124;18.116;2024-02-23T01:35:19;6.22;;;4.20;;
84682;SDS011;74905;44.124;18.116;2024-02-23T01:37:45;6.25;;;3.97;;
84682;SDS011;74905;44.124;18.116;2024-02-23T01:40:11;5.32;;;3.97;;
84682;SDS011;74905;44.124;18.116;2024-02-23T01:42:37;6.18;;;4.43;;
84682;SDS011;74905;44.124;18.116;2024-02-23T01:45:03;6.93;;;4.10;;
84682;SDS011;74905;44.124;18.116;2024-02-23T01:47:29;5.00;;;4.00;;
84682;SDS011;74905;44.124;18.116;2024-02-23T01:49:56;6.93;;;4.60;;
84682;SDS011;74905;44.124;18.116;2024-02-23T01:52:24;4.82;;;3.83;;
84682;SDS011;74905;44.124;18.116;2024-02-23T01:54:50;7.75;;;4.15;;
84682;SDS011;74905;44.124;18.116;2024-02-23T01:57:16;7.28;;;4.30;;
84682;SDS011;74905;44.124;18.116;2024-02-23T01:59:42;9.43;;;4.20;;
84682;SDS011;74905;44.124;18.116;2024-02-23T02:02:08;7.15;;;4.47;;
84682;SDS011;74905;44.124;18.116;2024-02-23T02:04:34;5.25;;;4.35;;
84682;SDS011;74905;44.124;18.116;2024-02-23T02:07:00;4.68;;;3.53;;
84682;SDS011;74905;44.124;18.116;2024-02-23T02:09:26;4.97;;;4.20;;
84682;SDS011;74905;44.124;18.116;2024-02-23T02:11:52;5.25;;;3.88;;
84682;SDS011;74905;44.124;18.116;2024-02-23T02:14:17;4.97;;;4.25;;
84682;SDS011;74905;44.124;18.116;2024-02-23T02:16:44;8.40;;;4.28;;
84682;SDS011;74905;44.124;18.116;2024-02-23T02:19:10;5.38;;;4.18;;
84682;SDS011;74905;44.124;18.116;2024-02-23T02:21:36;6.30;;;4.05;;
84682;SDS011;74905;44.124;18.116;2024-02-23T02:24:03;6.15;;;3.60;;
84682;SDS011;74905;44.124;18.116;2024-02-23T02:26:29;6.47;;;3.97;;
84682;SDS011;74905;44.124;18.116;2024-02-23T02:28:55;7.30;;;3.85;;
84682;SDS011;74905;44.124;18.116;2024-02-23T02:31:20;7.88;;;4.30;;
84682;SDS011;74905;44.124;18.116;2024-02-23T02:33:46;5.93;;;4.15;;
84682;SDS011;74905;44.124;18.116;2024-02-23T02:36:11;4.63;;;3.70;;
84682;SDS011;74905;44.124;18.116;2024-02-23T02:38:37;7.25;;;5.15;;
84682;SDS011;74905;44.124;18.116;2024-02-23T02:41:03;5.82;;;3.80;;
84682;SDS011;74905;44.124;18.116;2024-02-23T02:43:30;5.65;;;4.30;;
84682;SDS011;74905;44.124;18.116;2024-02-23T02:45:56;6.00;;;3.80;;
84682;SDS011;74905;44.124;18.116;2024-02-23T02:48:22;6.95;;;4.18;;
84682;SDS011;74905;44.124;18.116;2024-02-23T02:50:48;7.55;;;4.03;;
84682;SDS011;74905;44.124;18.116;2024-02-23T02:53:15;7.75;;;4.07;;
84682;SDS011;74905;44.124;18.116;2024-02-23T02:55:41;5.55;;;3.83;;
84682;SDS011;74905;44.124;18.116;2024-02-23T02:58:08;5.35;;;3.75;;
84682;SDS011;74905;44.124;18.116;2024-02-23T03:00:34;4.95;;;3.90;;
84682;SDS011;74905;44.124;18.116;2024-02-23T03:03:00;5.47;;;3.90;;
84682;SDS011;74905;44.124;18.116;2024-02-23T03:05:25;4.47;;;3.42;;
84682;SDS011;74905;44.124;18.116;2024-02-23T03:07:51;6.15;;;3.33;;
84682;SDS011;74905;44.124;18.116;2024-02-23T03:10:17;3.83;;;3.08;;
84682;SDS011;74905;44.124;18.116;2024-02-23T03:12:42;4.55;;;3.35;;
84682;SDS011;74905;44.124;18.116;2024-02-23T03:15:08;5.00;;;3.15;;
84682;SDS011;74905;44.124;18.116;2024-02-23T03:17:35;7.70;;;3.33;;
84682;SDS011;74905;44.124;18.116;2024-02-23T03:20:04;4.15;;;3.30;;
84682;SDS011;74905;44.124;18.116;2024-02-23T03:22:39;5.75;;;3.42;;
84682;SDS011;74905;44.124;18.116;2024-02-23T03:25:05;5.40;;;3.20;;
84682;SDS011;74905;44.124;18.116;2024-02-23T03:27:37;5.07;;;3.78;;
84682;SDS011;74905;44.124;18.116;2024-02-23T03:30:03;4.78;;;3.47;;
84682;SDS011;74905;44.124;18.116;2024-02-23T03:32:30;5.18;;;3.65;;
84682;SDS011;74905;44.124;18.116;2024-02-23T03:35:01;6.15;;;4.00;;
84682;SDS011;74905;44.124;18.116;2024-02-23T03:37:30;6.25;;;3.80;;
84682;SDS011;74905;44.124;18.116;2024-02-23T03:39:56;4.97;;;3.80;;
84682;SDS011;74905;44.124;18.116;2024-02-23T03:42:22;4.47;;;3.33;;
84682;SDS011;74905;44.124;18.116;2024-02-23T03:44:47;9.90;;;4.50;;
84682;SDS011;74905;44.124;18.116;2024-02-23T03:47:13;5.10;;;3.80;;
84682;SDS011;74905;44.124;18.116;2024-02-23T03:49:39;8.52;;;4.45;;
84682;SDS011;74905;44.124;18.116;2024-02-23T03:52:04;5.68;;;4.22;;
84682;SDS011;74905;44.124;18.116;2024-02-23T03:54:30;5.57;;;4.35;;
84682;SDS011;74905;44.124;18.116;2024-02-23T03:56:56;7.78;;;4.65;;
84682;SDS011;74905;44.124;18.116;2024-02-23T03:59:22;5.78;;;3.85;;
84682;SDS011;74905;44.124;18.116;2024-02-23T04:01:48;6.13;;;4.13;;
84682;SDS011;74905;44.124;18.116;2024-02-23T04:04:14;7.25;;;4.53;;
84682;SDS011;74905;44.124;18.116;2024-02-23T04:06:40;8.98;;;4.63;;
84682;SDS011;74905;44.124;18.116;2024-02-23T04:09:05;6.65;;;4.43;;
84682;SDS011;74905;44.124;18.116;2024-02-23T04:11:31;8.48;;;4.32;;
84682;SDS011;74905;44.124;18.116;2024-02-23T04:13:57;14.35;;;6.57;;
84682;SDS011;74905;44.124;18.116;2024-02-23T04:16:23;7.60;;;4.55;;
84682;SDS011;74905;44.124;18.116;2024-02-23T04:18:52;7.15;;;3.97;;
84682;SDS011;74905;44.124;18.116;2024-02-23T04:21:18;10.20;;;5.22;;
84682;SDS011;74905;44.124;18.116;2024-02-23T04:23:44;7.47;;;4.10;;
84682;SDS011;74905;44.124;18.116;2024-02-23T04:26:10;11.35;;;6.20;;
84682;SDS011;74905;44.124;18.116;2024-02-23T04:28:38;10.50;;;4.97;;
84682;SDS011;74905;44.124;18.116;2024-02-23T04:31:04;7.72;;;5.32;;
84682;SDS011;74905;44.124;18.116;2024-02-23T04:33:30;12.25;;;6.10;;
84682;SDS011;74905;44.124;18.116;2024-02-23T04:35:55;7.07;;;5.30;;
84682;SDS011;74905;44.124;18.116;2024-02-23T04:38:21;7.22;;;5.15;;
84682;SDS011;74905;44.124;18.116;2024-02-23T04:40:46;8.07;;;4.93;;
84682;SDS011;74905;44.124;18.116;2024-02-23T04:43:13;8.25;;;4.90;;
84682;SDS011;74905;44.124;18.116;2024-02-23T04:45:39;9.57;;;4.97;;
84682;SDS011;74905;44.124;18.116;2024-02-23T04:48:04;10.18;;;5.70;;
84682;SDS011;74905;44.124;18.116;2024-02-23T04:50:30;9.05;;;4.50;;
84682;SDS011;74905;44.124;18.116;2024-02-23T04:52:56;6.00;;;4.45;;
84682;SDS011;74905;44.124;18.116;2024-02-23T04:55:21;7.10;;;4.60;;
84682;SDS011;74905;44.124;18.116;2024-02-23T04:57:47;5.63;;;4.50;;
84682;SDS011;74905;44.124;18.116;2024-02-23T05:00:13;8.73;;;5.15;;
84682;SDS011;74905;44.124;18.116;2024-02-23T05:02:39;7.78;;;4.78;;
84682;SDS011;74905;44.124;18.116;2024-02-23T05:05:04;7.22;;;4.18;;
84682;SDS011;74905;44.124;18.116;2024-02-23T05:07:31;8.50;;;4.05;;
84682;SDS011;74905;44.124;18.116;2024-02-23T05:09:57;6.75;;;4.40;;
84682;SDS011;74905;44.124;18.116;2024-02-23T05:12:23;7.20;;;4.32;;
84682;SDS011;74905;44.124;18.116;2024-02-23T05:14:48;6.97;;;4.55;;
84682;SDS011;74905;44.124;18.116;2024-02-23T05:17:14;5.95;;;4.45;;
84682;SDS011;74905;44.124;18.116;2024-02-23T05:19:40;9.50;;;4.45;;
84682;SDS011;74905;44.124;18.116;2024-02-23T05:22:05;8.27;;;4.70;;
84682;SDS011;74905;44.124;18.116;2024-02-23T05:24:31;6.70;;;4.40;;
84682;SDS011;74905;44.124;18.116;2024-02-23T05:26:56;8.75;;;4.70;;
84682;SDS011;74905;44.124;18.116;2024-02-23T05:29:23;8.20;;;3.83;;
84682;SDS011;74905;44.124;18.116;2024-02-23T05:31:51;10.68;;;5.32;;
84682;SDS011;74905;44.124;18.116;2024-02-23T05:34:17;6.80;;;4.68;;
84682;SDS011;74905;44.124;18.116;2024-02-23T05:36:44;12.40;;;4.90;;
84682;SDS011;74905;44.124;18.116;2024-02-23T05:39:11;11.15;;;5.30;;
84682;SDS011;74905;44.124;18.116;2024-02-23T05:41:38;7.13;;;4.80;;
84682;SDS011;74905;44.124;18.116;2024-02-23T05:44:04;8.60;;;4.13;;
84682;SDS011;74905;44.124;18.116;2024-02-23T05:46:34;12.13;;;4.68;;
84682;SDS011;74905;44.124;18.116;2024-02-23T05:49:01;6.68;;;4.03;;
84682;SDS011;74905;44.124;18.116;2024-02-23T05:51:28;11.80;;;6.32;;
84682;SDS011;74905;44.124;18.116;2024-02-23T05:53:57;8.93;;;5.60;;
84682;SDS011;74905;44.124;18.116;2024-02-23T05:56:23;8.02;;;4.70;;
84682;SDS011;74905;44.124;18.116;2024-02-23T05:58:50;10.18;;;4.47;;
84682;SDS011;74905;44.124;18.116;2024-02-23T06:01:16;8.82;;;4.20;;
84682;SDS011;74905;44.124;18.116;2024-02-23T06:03:43;9.30;;;4.38;;
84682;SDS011;74905;44.124;18.116;2024-02-23T06:06:10;9.25;;;4.28;;
84682;SDS011;74905;44.124;18.116;2024-02-23T06:08:35;5.53;;;3.88;;
84682;SDS011;74905;44.124;18.116;2024-02-23T06:11:02;6.70;;;3.90;;
84682;SDS011;74905;44.124;18.116;2024-02-23T06:13:32;6.57;;;4.10;;
84682;SDS011;74905;44.124;18.116;2024-02-23T06:15:58;7.32;;;4.00;;
84682;SDS011;74905;44.124;18.116;2024-02-23T06:18:24;9.85;;;4.43;;
84682;SDS011;74905;44.124;18.116;2024-02-23T06:20:50;7.00;;;4.20;;
84682;SDS011;74905;44.124;18.116;2024-02-23T06:23:16;7.35;;;4.53;;
84682;SDS011;74905;44.124;18.116;2024-02-23T06:25:42;7.55;;;5.07;;
84682;SDS011;74905;44.124;18.116;2024-02-23T06:28:09;11.25;;;6.45;;
84682;SDS011;74905;44.124;18.116;2024-02-23T06:30:34;12.50;;;6.53;;
84682;SDS011;74905;44.124;18.116;2024-02-23T06:33:00;10.98;;;6.30;;
84682;SDS011;74905;44.124;18.116;2024-02-23T06:35:26;10.32;;;6.93;;
84682;SDS011;74905;44.124;18.116;2024-02-23T06:37:51;8.90;;;5.05;;
84682;SDS011;74905;44.124;18.116;2024-02-23T06:40:18;7.15;;;4.38;;
84682;SDS011;74905;44.124;18.116;2024-02-23T06:42:43;4.88;;;3.65;;
84682;SDS011;74905;44.124;18.116;2024-02-23T06:45:09;7.05;;;4.72;;
84682;SDS011;74905;44.124;18.116;2024-02-23T06:47:35;7.55;;;4.53;;
84682;SDS011;74905;44.124;18.116;2024-02-23T06:50:00;9.57;;;4.22;;
84682;SDS011;74905;44.124;18.116;2024-02-23T06:52:29;7.78;;;4.43;;
84682;SDS011;74905;44.124;18.116;2024-02-23T06:54:55;8.80;;;4.32;;
84682;SDS011;74905;44.124;18.116;2024-02-23T06:57:22;15.07;;;6.43;;
84682;SDS011;74905;44.124;18.116;2024-02-23T06:59:51;7.00;;;4.10;;
84682;SDS011;74905;44.124;18.116;2024-02-23T07:02:17;6.72;;;4.35;;
84682;SDS011;74905;44.124;18.116;2024-02-23T07:04:43;7.25;;;4.50;;
84682;SDS011;74905;44.124;18.116;2024-02-23T07:07:08;6.53;;;4.20;;
84682;SDS011;74905;44.124;18.116;2024-02-23T07:09:35;11.43;;;5.03;;
84682;SDS011;74905;44.124;18.116;2024-02-23T07:12:02;7.47;;;4.50;;
84682;SDS011;74905;44.124;18.116;2024-02-23T07:14:27;6.53;;;4.25;;
84682;SDS011;74905;44.124;18.116;2024-02-23T07:16:53;6.68;;;4.32;;
84682;SDS011;74905;44.124;18.116;2024-02-23T07:19:20;7.53;;;4.60;;
84682;SDS011;74905;44.124;18.116;2024-02-23T07:21:46;5.57;;;3.70;;
84682;SDS011;74905;44.124;18.116;2024-02-23T07:24:57;7.57;;;4.10;;
84682;SDS011;74905;44.124;18.116;2024-02-23T07:27:14;7.60;;;3.90;;
84682;SDS011;74905;44.124;18.116;2024-02-23T07:29:40;6.57;;;3.90;;
84682;SDS011;74905;44.124;18.116;2024-02-23T07:32:06;7.35;;;4.50;;
84682;SDS011;74905;44.124;18.116;2024-02-23T07:34:32;8.20;;;4.53;;
84682;SDS011;74905;44.124;18.116;2024-02-23T07:36:59;9.77;;;5.85;;
84682;SDS011;74905;44.124;18.116;2024-02-23T07:39:24;8.35;;;4.30;;
84682;SDS011;74905;44.124;18.116;2024-02-23T07:41:52;6.38;;;4.20;;
84682;SDS011;74905;44.124;18.116;2024-02-23T07:44:17;6.75;;;4.15;;
84682;SDS011;74905;44.124;18.116;2024-02-23T07:46:44;10.18;;;5.20;;
84682;SDS011;74905;44.124;18.116;2024-02-23T07:49:10;8.18;;;6.50;;
84682;SDS011;74905;44.124;18.116;2024-02-23T07:51:39;9.48;;;5.25;;
84682;SDS011;74905;44.124;18.116;2024-02-23T07:54:10;8.23;;;5.22;;
84682;SDS011;74905;44.124;18.116;2024-02-23T07:56:36;8.73;;;5.18;;
84682;SDS011;74905;44.124;18.116;2024-02-23T07:59:02;7.47;;;4.45;;
84682;SDS011;74905;44.124;18.116;2024-02-23T08:01:28;5.72;;;4.40;;
84682;SDS011;74905;44.124;18.116;2024-02-23T08:03:54;6.22;;;3.53;;
84682;SDS011;74905;44.124;18.116;2024-02-23T08:06:20;5.40;;;3.47;;
84682;SDS011;74905;44.124;18.116;2024-02-23T08:08:45;7.25;;;4.72;;
84682;SDS011;74905;44.124;18.116;2024-02-23T08:11:12;9.38;;;5.18;;
84682;SDS011;74905;44.124;18.116;2024-02-23T08:13:39;5.60;;;3.63;;
84682;SDS011;74905;44.124;18.116;2024-02-23T08:16:05;5.30;;;3.60;;
84682;SDS011;74905;44.124;18.116;2024-02-23T08:18:31;8.60;;;5.18;;
84682;SDS011;74905;44.124;18.116;2024-02-23T08:20:57;14.52;;;8.18;;
84682;SDS011;74905;44.124;18.116;2024-02-23T08:23:23;12.82;;;6.68;;
84682;SDS011;74905;44.124;18.116;2024-02-23T08:25:49;4.78;;;4.15;;
84682;SDS011;74905;44.124;18.116;2024-02-23T08:28:16;5.63;;;3.55;;
84682;SDS011;74905;44.124;18.116;2024-02-23T08:30:42;5.88;;;3.53;;
84682;SDS011;74905;44.124;18.116;2024-02-23T08:33:07;5.78;;;3.72;;
84682;SDS011;74905;44.124;18.116;2024-02-23T08:35:35;4.53;;;3.17;;
84682;SDS011;74905;44.124;18.116;2024-02-23T08:38:01;4.40;;;3.50;;
84682;SDS011;74905;44.124;18.116;2024-02-23T08:40:27;6.53;;;3.67;;
84682;SDS011;74905;44.124;18.116;2024-02-23T08:42:52;6.30;;;4.60;;
84682;SDS011;74905;44.124;18.116;2024-02-23T08:45:18;6.15;;;3.58;;
84682;SDS011;74905;44.124;18.116;2024-02-23T08:47:43;4.80;;;3.67;;
84682;SDS011;74905;44.124;18.116;2024-02-23T08:50:09;7.07;;;3.85;;
84682;SDS011;74905;44.124;18.116;2024-02-23T08:52:35;9.40;;;4.85;;
84682;SDS011;74905;44.124;18.116;2024-02-23T08:55:00;7.40;;;4.28;;
84682;SDS011;74905;44.124;18.116;2024-02-23T08:57:27;7.57;;;4.45;;
84682;SDS011;74905;44.124;18.116;2024-02-23T08:59:53;7.28;;;4.50;;
84682;SDS011;74905;44.124;18.116;2024-02-23T09:02:18;10.20;;;5.25;;
84682;SDS011;74905;44.124;18.116;2024-02-23T09:04:45;6.25;;;4.50;;
84682;SDS011;74905;44.124;18.116;2024-02-23T09:07:11;11.50;;;5.25;;
84682;SDS011;74905;44.124;18.116;2024-02-23T09:09:37;8.10;;;4.43;;
84682;SDS011;74905;44.124;18.116;2024-02-23T09:12:02;10.13;;;7.00;;
84682;SDS011;74905;44.124;18.116;2024-02-23T09:14:29;13.50;;;9.98;;
84682;SDS011;74905;44.124;18.116;2024-02-23T09:16:55;12.27;;;6.78;;
84682;SDS011;74905;44.124;18.116;2024-02-23T09:19:20;31.83;;;13.65;;
84682;SDS011;74905;44.124;18.116;2024-02-23T09:21:46;28.45;;;13.85;;
84682;SDS011;74905;44.124;18.116;2024-02-23T09:24:12;18.73;;;10.85;;
84682;SDS011;74905;44.124;18.116;2024-02-23T09:26:38;14.00;;;9.05;;
84682;SDS011;74905;44.124;18.116;2024-02-23T09:29:04;21.02;;;9.88;;
84682;SDS011;74905;44.124;18.116;2024-02-23T09:31:30;21.02;;;8.75;;
84682;SDS011;74905;44.124;18.116;2024-02-23T09:33:57;16.52;;;7.25;;
84682;SDS011;74905;44.124;18.116;2024-02-23T09:36:23;11.07;;;6.18;;
84682;SDS011;74905;44.124;18.116;2024-02-23T09:38:49;15.82;;;6.40;;
84682;SDS011;74905;44.124;18.116;2024-02-23T09:41:19;19.25;;;8.80;;
84682;SDS011;74905;44.124;18.116;2024-02-23T09:43:48;24.27;;;11.20;;
84682;SDS011;74905;44.124;18.116;2024-02-23T09:46:18;16.00;;;8.50;;
84682;SDS011;74905;44.124;18.116;2024-02-23T09:48:44;13.23;;;5.75;;
84682;SDS011;74905;44.124;18.116;2024-02-23T09:51:14;8.60;;;4.65;;
84682;SDS011;74905;44.124;18.116;2024-02-23T09:53:41;6.72;;;4.30;;
84682;SDS011;74905;44.124;18.116;2024-02-23T09:56:10;6.18;;;4.20;;
84682;SDS011;74905;44.124;18.116;2024-02-23T09:58:36;11.48;;;5.40;;
84682;SDS011;74905;44.124;18.116;2024-02-23T10:01:03;7.38;;;4.22;;
84682;SDS011;74905;44.124;18.116;2024-02-23T10:03:29;8.30;;;4.85;;
84682;SDS011;74905;44.124;18.116;2024-02-23T10:05:58;8.38;;;4.35;;
84682;SDS011;74905;44.124;18.116;2024-02-23T10:08:29;7.15;;;4.90;;
84682;SDS011;74905;44.124;18.116;2024-02-23T10:10:56;10.98;;;4.80;;
84682;SDS011;74905;44.124;18.116;2024-02-23T10:13:22;8.77;;;4.18;;
84682;SDS011;74905;44.124;18.116;2024-02-23T10:15:51;10.38;;;4.90;;
84682;SDS011;74905;44.124;18.116;2024-02-23T10:18:18;6.28;;;4.07;;
84682;SDS011;74905;44.124;18.116;2024-02-23T10:20:44;9.30;;;3.88;;
84682;SDS011;74905;44.124;18.116;2024-02-23T10:23:11;8.15;;;4.47;;
84682;SDS011;74905;44.124;18.116;2024-02-23T10:25:37;8.27;;;4.07;;
84682;SDS011;74905;44.124;18.116;2024-02-23T10:28:03;6.10;;;4.05;;
84682;SDS011;74905;44.124;18.116;2024-02-23T10:30:29;5.50;;;3.47;;
84682;SDS011;74905;44.124;18.116;2024-02-23T10:32:58;8.07;;;5.55;;
84682;SDS011;74905;44.124;18.116;2024-02-23T10:35:24;9.70;;;3.97;;
84682;SDS011;74905;44.124;18.116;2024-02-23T10:37:51;10.05;;;3.70;;
84682;SDS011;74905;44.124;18.116;2024-02-23T10:40:19;9.32;;;5.65;;
84682;SDS011;74905;44.124;18.116;2024-02-23T10:42:46;7.78;;;4.70;;
84682;SDS011;74905;44.124;18.116;2024-02-23T10:45:16;5.57;;;3.72;;
84682;SDS011;74905;44.124;18.116;2024-02-23T10:47:44;6.10;;;3.80;;
84682;SDS011;74905;44.124;18.116;2024-02-23T10:50:11;4.97;;;3.10;;
84682;SDS011;74905;44.124;18.116;2024-02-23T10:52:43;5.90;;;3.22;;
84682;SDS011;74905;44.124;18.116;2024-02-23T10:55:10;4.40;;;3.00;;
84682;SDS011;74905;44.124;18.116;2024-02-23T10:57:36;4.78;;;2.92;;
84682;SDS011;74905;44.124;18.116;2024-02-23T11:00:04;6.95;;;4.25;;
84682;SDS011;74905;44.124;18.116;2024-02-23T11:05:10;5.10;;;2.85;;
84682;SDS011;74905;44.124;18.116;2024-02-23T11:07:55;6.30;;;3.35;;
84682;SDS011;74905;44.124;18.116;2024-02-23T11:10:22;8.05;;;3.63;;
84682;SDS011;74905;44.124;18.116;2024-02-23T11:12:57;5.47;;;3.38;;
84682;SDS011;74905;44.124;18.116;2024-02-23T11:15:28;5.28;;;3.15;;
84682;SDS011;74905;44.124;18.116;2024-02-23T11:17:54;5.57;;;3.15;;
84682;SDS011;74905;44.124;18.116;2024-02-23T11:20:20;4.93;;;3.35;;
84682;SDS011;74905;44.124;18.116;2024-02-23T11:22:53;5.38;;;2.90;;
84682;SDS011;74905;44.124;18.116;2024-02-23T11:25:19;14.40;;;6.63;;
84682;SDS011;74905;44.124;18.116;2024-02-23T11:27:49;8.88;;;4.85;;
84682;SDS011;74905;44.124;18.116;2024-02-23T11:30:16;7.18;;;3.67;;
84682;SDS011;74905;44.124;18.116;2024-02-23T11:35:19;6.68;;;4.07;;
84682;SDS011;74905;44.124;18.116;2024-02-23T11:40:14;7.65;;;3.78;;
84682;SDS011;74905;44.124;18.116;2024-02-23T11:42:42;4.55;;;2.97;;
84682;SDS011;74905;44.124;18.116;2024-02-23T11:45:11;6.22;;;3.65;;
84682;SDS011;74905;44.124;18.116;2024-02-23T11:47:37;3.70;;;2.95;;
84682;SDS011;74905;44.124;18.116;2024-02-23T11:50:04;8.43;;;3.50;;
84682;SDS011;74905;44.124;18.116;2024-02-23T11:52:33;6.70;;;3.97;;
84682;SDS011;74905;44.124;18.116;2024-02-23T11:54:59;6.65;;;3.83;;
84682;SDS011;74905;44.124;18.116;2024-02-23T11:57:25;4.63;;;3.10;;
84682;SDS011;74905;44.124;18.116;2024-02-23T11:59:51;3.60;;;2.67;;
84682;SDS011;74905;44.124;18.116;2024-02-23T12:02:20;5.15;;;3.20;;
84682;SDS011;74905;44.124;18.116;2024-02-23T12:04:46;5.75;;;3.50;;
84682;SDS011;74905;44.124;18.116;2024-02-23T12:07:12;4.88;;;2.53;;
84682;SDS011;74905;44.124;18.116;2024-02-23T12:09:37;6.78;;;3.20;;
84682;SDS011;74905;44.124;18.116;2024-02-23T12:12:06;6.70;;;2.65;;
84682;SDS011;74905;44.124;18.116;2024-02-23T12:14:34;6.57;;;2.80;;
84682;SDS011;74905;44.124;18.116;2024-02-23T12:17:02;6.55;;;3.20;;
84682;SDS011;74905;44.124;18.116;2024-02-23T12:19:32;5.60;;;2.50;;
84682;SDS011;74905;44.124;18.116;2024-02-23T12:22:01;8.02;;;3.10;;
84682;SDS011;74905;44.124;18.116;2024-02-23T12:24:27;4.80;;;3.08;;
84682;SDS011;74905;44.124;18.116;2024-02-23T12:26:55;8.25;;;3.08;;
84682;SDS011;74905;44.124;18.116;2024-02-23T12:29:21;6.03;;;2.70;;
84682;SDS011;74905;44.124;18.116;2024-02-23T12:31:47;3.38;;;2.53;;
84682;SDS011;74905;44.124;18.116;2024-02-23T12:34:13;4.47;;;2.72;;
84682;SDS011;74905;44.124;18.116;2024-02-23T12:36:38;4.55;;;2.70;;
84682;SDS011;74905;44.124;18.116;2024-02-23T12:39:05;4.00;;;2.60;;
84682;SDS011;74905;44.124;18.116;2024-02-23T12:41:30;3.60;;;2.30;;
84682;SDS011;74905;44.124;18.116;2024-02-23T12:43:57;3.95;;;2.55;;
84682;SDS011;74905;44.124;18.116;2024-02-23T12:46:23;5.78;;;2.83;;
84682;SDS011;74905;44.124;18.116;2024-02-23T12:48:49;8.55;;;2.78;;
84682;SDS011;74905;44.124;18.116;2024-02-23T12:51:15;4.35;;;2.30;;
84682;SDS011;74905;44.124;18.116;2024-02-23T12:53:42;4.60;;;2.40;;
84682;SDS011;74905;44.124;18.116;2024-02-23T12:56:12;5.32;;;3.15;;
84682;SDS011;74905;44.124;18.116;2024-02-23T12:58:41;6.35;;;2.92;;
84682;SDS011;74905;44.124;18.116;2024-02-23T13:01:09;9.00;;;3.60;;
84682;SDS011;74905;44.124;18.116;2024-02-23T13:03:35;6.03;;;3.22;;
84682;SDS011;74905;44.124;18.116;2024-02-23T13:06:03;5.72;;;2.70;;
84682;SDS011;74905;44.124;18.116;2024-02-23T13:08:30;3.42;;;2.33;;
84682;SDS011;74905;44.124;18.116;2024-02-23T13:10:56;5.57;;;2.70;;
84682;SDS011;74905;44.124;18.116;2024-02-23T13:13:23;6.85;;;3.35;;
84682;SDS011;74905;44.124;18.116;2024-02-23T13:15:50;4.97;;;3.00;;
84682;SDS011;74905;44.124;18.116;2024-02-23T13:18:17;4.90;;;2.90;;
84682;SDS011;74905;44.124;18.116;2024-02-23T13:20:44;4.78;;;2.55;;
84682;SDS011;74905;44.124;18.116;2024-02-23T13:23:11;9.27;;;3.45;;
84682;SDS011;74905;44.124;18.116;2024-02-23T13:25:44;3.75;;;2.67;;
84682;SDS011;74905;44.124;18.116;2024-02-23T13:28:10;4.53;;;2.90;;
84682;SDS011;74905;44.124;18.116;2024-02-23T13:30:36;6.47;;;2.95;;
84682;SDS011;74905;44.124;18.116;2024-02-23T13:33:02;5.78;;;3.10;;
84682;SDS011;74905;44.124;18.116;2024-02-23T13:35:28;5.95;;;2.88;;
84682;SDS011;74905;44.124;18.116;2024-02-23T13:37:55;4.10;;;2.78;;
84682;SDS011;74905;44.124;18.116;2024-02-23T13:40:22;3.55;;;2.40;;
84682;SDS011;74905;44.124;18.116;2024-02-23T13:42:48;5.43;;;2.80;;
84682;SDS011;74905;44.124;18.116;2024-02-23T13:45:20;5.05;;;2.92;;
84682;SDS011;74905;44.124;18.116;2024-02-23T13:47:58;5.95;;;3.15;;
84682;SDS011;74905;44.124;18.116;2024-02-23T13:50:28;3.60;;;2.50;;
84682;SDS011;74905;44.124;18.116;2024-02-23T13:52:54;4.25;;;2.55;;
84682;SDS011;74905;44.124;18.116;2024-02-23T13:55:20;9.63;;;3.00;;
84682;SDS011;74905;44.124;18.116;2024-02-23T13:57:49;4.57;;;2.72;;
84682;SDS011;74905;44.124;18.116;2024-02-23T14:00:15;3.55;;;2.35;;
84682;SDS011;74905;44.124;18.116;2024-02-23T14:02:42;3.05;;;2.30;;
84682;SDS011;74905;44.124;18.116;2024-02-23T14:05:09;6.35;;;3.10;;
84682;SDS011;74905;44.124;18.116;2024-02-23T14:07:35;4.70;;;2.20;;
84682;SDS011;74905;44.124;18.116;2024-02-23T14:10:01;3.60;;;2.28;;
84682;SDS011;74905;44.124;18.116;2024-02-23T14:15:00;4.88;;;2.42;;
84682;SDS011;74905;44.124;18.116;2024-02-23T14:17:25;7.93;;;2.92;;
84682;SDS011;74905;44.124;18.116;2024-02-23T14:19:51;5.43;;;2.67;;
84682;SDS011;74905;44.124;18.116;2024-02-23T14:22:17;5.47;;;3.10;;
84682;SDS011;74905;44.124;18.116;2024-02-23T14:24:43;5.28;;;3.58;;
84682;SDS011;74905;44.124;18.116;2024-02-23T14:27:08;4.88;;;2.70;;
84682;SDS011;74905;44.124;18.116;2024-02-23T14:29:34;4.05;;;2.80;;
84682;SDS011;74905;44.124;18.116;2024-02-23T14:32:00;4.45;;;2.78;;
84682;SDS011;74905;44.124;18.116;2024-02-23T14:34:26;8.23;;;3.95;;
84682;SDS011;74905;44.124;18.116;2024-02-23T14:36:52;7.28;;;2.85;;
84682;SDS011;74905;44.124;18.116;2024-02-23T14:39:18;7.30;;;3.05;;